Time;durP1;ratioP1;P1;durP2;ratioP2;P2;SDS_P1;SDS_P2;PMS_P1;PMS_P2;Temp;Humidity;BMP_temperature;BMP_pressure;BME280_temperature;BME280_humidity;BME280_pressure;Samples;Min_cycle;Max_cycle;Signal;HPM_P1;HPM_P2
2022/04/21 00:01:49;;;;;;;64.90;29.60;;;;;;;5.40;100.00;101031.94;7399248;19;20391;-46
2022/04/21 00:04:19;;;;;;;13.27;8.03;;;;;;;5.42;100.00;101034.63;7395281;19;20430;-45
2022/04/21 00:06:51;;;;;;;11.70;5.90;;;;;;;5.37;100.00;101037.75;7399035;19;20727;-47
2022/04/21 00:09:20;;;;;;;12.80;6.50;;;;;;;5.44;100.00;101033.03;7396905;19;20426;-47
2022/04/21 00:11:50;;;;;;;10.00;5.33;;;;;;;5.41;100.00;101036.28;7398771;19;20466;-46
2022/04/21 00:14:19;;;;;;;10.30;5.60;;;;;;;5.34;100.00;101034.97;7384465;19;20426;-46
2022/04/21 00:16:49;;;;;;;13.70;7.00;;;;;;;5.30;100.00;101029.53;7398618;19;20733;-45
2022/04/21 00:19:18;;;;;;;15.30;6.50;;;;;;;5.33;100.00;101024.66;7395776;19;20483;-45
2022/04/21 00:24:32;;;;;;;24.10;9.93;;;;;;;5.32;100.00;101017.75;7395280;19;20418;-47
2022/04/21 00:27:02;;;;;;;58.47;27.23;;;;;;;5.33;100.00;101019.53;7392006;19;20379;-49
2022/04/21 00:29:31;;;;;;;17.97;9.10;;;;;;;5.23;100.00;101015.47;7395999;19;20394;-48
2022/04/21 00:32:01;;;;;;;11.87;7.10;;;;;;;5.22;100.00;101012.00;7391470;19;20364;-46
2022/04/21 00:34:31;;;;;;;13.80;7.13;;;;;;;5.20;100.00;101011.03;7395751;19;20419;-47
2022/04/21 00:37:03;;;;;;;10.70;6.33;;;;;;;5.16;100.00;101005.56;7392310;19;20374;-46
2022/04/21 00:39:33;;;;;;;20.53;8.37;;;;;;;5.17;100.00;101005.69;7397153;19;20384;-47
2022/04/21 00:42:05;;;;;;;10.37;5.90;;;;;;;5.13;100.00;101008.84;7392214;19;20400;-46
2022/04/21 00:44:34;;;;;;;9.63;6.20;;;;;;;5.15;100.00;101004.72;7395545;19;20408;-46
2022/04/21 00:47:07;;;;;;;14.50;8.00;;;;;;;5.16;100.00;100993.69;7393042;19;21327;-45
2022/04/21 00:49:37;;;;;;;13.17;6.73;;;;;;;5.20;100.00;100985.44;7398000;19;20393;-47
2022/04/21 00:52:10;;;;;;;57.60;27.03;;;;;;;5.23;100.00;100983.06;7392508;19;20406;-53
2022/04/21 00:54:39;;;;;;;11.10;6.17;;;;;;;5.14;100.00;100987.59;7400006;19;20770;-47
2022/04/21 00:57:09;;;;;;;18.20;10.07;;;;;;;5.13;100.00;100985.81;7391880;19;20379;-45
2022/04/21 00:59:38;;;;;;;9.90;6.10;;;;;;;5.12;100.00;100976.34;7397438;19;20417;-44
2022/04/21 01:04:51;;;;;;;11.40;7.27;;;;;;;5.06;100.00;100969.16;7395192;19;20410;-45
2022/04/21 01:07:23;;;;;;;13.40;6.20;;;;;;;5.04;100.00;100969.84;7389212;19;20415;-44
2022/04/21 01:09:52;;;;;;;12.83;8.30;;;;;;;5.01;100.00;100965.41;7395086;19;20386;-46
2022/04/21 01:12:23;;;;;;;26.53;13.03;;;;;;;5.04;100.00;100962.16;7381126;19;20421;-48
2022/04/21 01:14:52;;;;;;;52.90;25.17;;;;;;;4.98;100.00;100960.97;7395126;19;20404;-47
2022/04/21 01:17:32;;;;;;;13.97;6.40;;;;;;;5.03;100.00;100958.69;7390597;19;20395;-46
2022/04/21 01:20:02;;;;;;;30.70;16.37;;;;;;;5.03;100.00;100953.59;7400332;19;20375;-45
2022/04/21 01:22:34;;;;;;;20.23;10.27;;;;;;;5.02;100.00;100950.94;7389805;19;20751;-45
2022/04/21 01:25:05;;;;;;;10.20;6.60;;;;;;;5.02;100.00;100950.94;7394824;19;21056;-46
2022/04/21 01:27:37;;;;;;;55.97;27.63;;;;;;;5.10;100.00;100947.22;7390980;19;20871;-46
2022/04/21 01:30:08;;;;;;;20.33;10.90;;;;;;;5.04;100.00;100944.25;7394995;19;20410;-48
2022/04/21 01:32:40;;;;;;;23.53;11.17;;;;;;;5.02;100.00;100935.59;7389962;19;21060;-46
2022/04/21 01:35:11;;;;;;;12.67;6.80;;;;;;;4.99;100.00;100932.03;7394415;19;20399;-47
2022/04/21 01:43:07;;;;;;;14.27;7.13;;;;;;;5.06;100.00;100920.56;7390077;19;20423;-46
2022/04/21 01:45:37;;;;;;;16.80;9.00;;;;;;;5.05;100.00;100923.00;7393643;19;20411;-45
2022/04/21 01:48:07;;;;;;;34.03;15.83;;;;;;;5.10;100.00;100924.22;7387874;19;20959;-50
2022/04/21 01:50:37;;;;;;;9.10;5.73;;;;;;;5.06;100.00;100928.22;7393804;19;20383;-47
2022/04/21 01:53:09;;;;;;;21.80;11.10;;;;;;;4.98;100.00;100916.63;7391482;19;20407;-45
2022/04/21 01:55:39;;;;;;;11.13;6.20;;;;;;;4.89;100.00;100923.66;7393550;19;20420;-45
2022/04/21 01:58:08;;;;;;;17.83;9.13;;;;;;;4.85;100.00;100923.47;7388599;19;20411;-46
2022/04/21 02:00:38;;;;;;;10.23;6.23;;;;;;;4.85;100.00;100922.56;7395205;19;20384;-46
2022/04/21 02:03:07;;;;;;;11.00;6.13;;;;;;;4.90;100.00;100910.97;7387181;19;20430;-45
2022/04/21 02:05:37;;;;;;;11.40;6.90;;;;;;;4.89;100.00;100913.41;7392546;19;20929;-44
2022/04/21 02:08:09;;;;;;;16.67;8.50;;;;;;;4.88;100.00;100907.44;7388529;19;20760;-48
2022/04/21 02:10:39;;;;;;;19.13;9.20;;;;;;;4.85;100.00;100912.34;7393962;19;20396;-45
2022/04/21 02:13:08;;;;;;;19.33;10.00;;;;;;;4.88;100.00;100904.88;7388008;19;20419;-47
2022/04/21 02:15:38;;;;;;;11.20;6.23;;;;;;;4.77;100.00;100901.59;7392933;19;20405;-50
2022/04/21 02:18:07;;;;;;;11.30;6.33;;;;;;;4.70;100.00;100897.75;7389562;19;20415;-46
2022/04/21 02:20:37;;;;;;;11.10;6.37;;;;;;;4.79;100.00;100896.56;7394582;19;20490;-45
2022/04/21 02:23:09;;;;;;;18.80;9.17;;;;;;;4.81;100.00;100895.00;7390337;19;20415;-44
2022/04/21 02:25:38;;;;;;;12.80;7.70;;;;;;;4.79;100.00;100894.03;7392479;19;20418;-46
2022/04/21 02:28:10;;;;;;;15.80;8.10;;;;;;;4.79;100.00;100894.91;7387503;19;20411;-45
2022/04/21 02:30:40;;;;;;;77.53;32.80;;;;;;;4.84;100.00;100885.00;7393099;19;20363;-46
2022/04/21 02:33:09;;;;;;;37.80;18.57;;;;;;;4.85;100.00;100876.53;7389170;19;20415;-46
2022/04/21 02:35:38;;;;;;;31.77;14.30;;;;;;;4.87;100.00;100880.06;7392196;19;20498;-50
2022/04/21 02:38:11;;;;;;;14.90;7.47;;;;;;;4.85;100.00;100882.56;7386065;19;20419;-47
2022/04/21 02:40:40;;;;;;;13.00;6.40;;;;;;;4.72;100.00;100875.72;7394189;19;20387;-47
2022/04/21 02:43:10;;;;;;;41.77;19.83;;;;;;;4.66;100.00;100875.31;7389668;19;20423;-50
2022/04/21 02:45:39;;;;;;;12.70;6.97;;;;;;;4.63;100.00;100879.31;7391982;19;20765;-46
2022/04/21 02:48:10;;;;;;;13.40;6.97;;;;;;;4.63;100.00;100875.09;7387876;19;20435;-48
2022/04/21 02:50:40;;;;;;;36.13;18.33;;;;;;;4.67;100.00;100873.63;7392615;19;20758;-47
2022/04/21 02:53:12;;;;;;;14.33;7.93;;;;;;;4.65;100.00;100865.88;7389008;19;20425;-45
2022/04/21 02:58:24;;;;;;;16.30;7.97;;;;;;;4.69;100.00;100865.28;7388430;19;20411;-46
2022/04/21 03:00:53;;;;;;;12.00;6.13;;;;;;;4.59;100.00;100868.00;7393425;19;20396;-46
2022/04/21 03:03:23;;;;;;;17.07;9.30;;;;;;;4.65;100.00;100858.19;7389233;19;20444;-46
2022/04/21 03:05:52;;;;;;;15.63;8.90;;;;;;;4.66;100.00;100847.19;7390696;19;20407;-46
2022/04/21 03:08:24;;;;;;;13.10;6.50;;;;;;;4.62;100.00;100842.66;7388297;19;20412;-48
2022/04/21 03:10:53;;;;;;;58.20;25.17;;;;;;;4.69;100.00;100836.28;7392286;19;20388;-45
2022/04/21 03:13:23;;;;;;;36.40;18.37;;;;;;;5.00;100.00;100802.50;7389265;19;20415;-48
2022/04/21 03:15:52;;;;;;;28.27;13.17;;;;;;;5.10;100.00;100798.88;7391135;19;20425;-44
2022/04/21 03:18:22;;;;;;;18.87;10.97;;;;;;;5.11;100.00;100798.97;7386733;19;20418;-46
2022/04/21 03:26:18;;;;;;;14.90;8.00;;;;;;;5.15;100.00;100810.28;7392527;19;20387;-46
2022/04/21 03:28:47;;;;;;;15.93;7.17;;;;;;;5.19;100.00;100814.84;7385682;19;20408;-51
2022/04/21 03:31:17;;;;;;;15.90;8.23;;;;;;;5.26;100.00;100819.56;7391081;19;20711;-45
2022/04/21 03:33:47;;;;;;;17.37;9.20;;;;;;;5.17;100.00;100833.41;7385052;19;20420;-48
2022/04/21 03:36:16;;;;;;;13.83;8.10;;;;;;;5.28;100.00;100827.31;7392121;19;20391;-46
2022/04/21 03:38:48;;;;;;;18.60;8.10;;;;;;;5.20;100.00;100833.59;7387535;19;20770;-48
2022/04/21 03:41:17;;;;;;;21.73;11.23;;;;;;;5.23;100.00;100839.81;7392281;19;20745;-46
2022/04/21 03:43:49;;;;;;;19.93;9.00;;;;;;;5.15;100.00;100841.00;7385118;19;20514;-45
2022/04/21 03:46:18;;;;;;;20.03;9.53;;;;;;;5.18;100.00;100846.28;7392118;19;20454;-45
2022/04/21 03:48:48;;;;;;;17.53;9.13;;;;;;;5.20;100.00;100839.63;7384184;19;20946;-46
2022/04/21 03:51:18;;;;;;;18.13;7.40;;;;;;;5.18;100.00;100850.53;7390786;19;20405;-49
2022/04/21 03:53:50;;;;;;;18.07;9.33;;;;;;;5.10;100.00;100861.16;7386699;19;20809;-45
2022/04/21 03:56:19;;;;;;;14.10;7.20;;;;;;;5.06;100.00;100864.28;7392636;19;20392;-45
2022/04/21 03:58:53;;;;;;;12.20;6.60;;;;;;;5.06;100.00;100858.28;7387258;19;20493;-46
2022/04/21 04:01:22;;;;;;;10.80;5.87;;;;;;;4.99;100.00;100859.56;7391707;19;20394;-47
2022/04/21 04:03:52;;;;;;;14.97;6.13;;;;;;;5.00;100.00;100862.22;7385615;19;20419;-45
2022/04/21 04:11:49;;;;;;;13.30;6.43;;;;;;;4.97;100.00;100858.59;7392294;19;20380;-47
2022/04/21 04:14:21;;;;;;;24.53;9.60;;;;;;;4.91;100.00;100851.38;7396509;19;20971;-45
2022/04/21 04:16:50;;;;;;;13.40;7.07;;;;;;;4.79;100.00;100853.13;7398066;19;20438;-45
2022/04/21 04:19:20;;;;;;;21.43;10.77;;;;;;;4.78;100.00;100848.78;7397753;19;20412;-48
2022/04/21 04:21:49;;;;;;;12.37;6.57;;;;;;;4.85;100.00;100845.84;7398191;19;20767;-45
2022/04/21 04:24:22;;;;;;;20.53;10.53;;;;;;;4.74;100.00;100847.69;7395713;19;20421;-44
2022/04/21 04:26:51;;;;;;;15.53;7.93;;;;;;;4.84;100.00;100842.44;7398302;19;20382;-44
2022/04/21 04:29:22;;;;;;;13.27;6.50;;;;;;;4.76;100.00;100842.69;7397305;19;20835;-46
2022/04/21 04:31:53;;;;;;;13.43;6.40;;;;;;;4.64;100.00;100841.09;7396558;19;20388;-45
2022/04/21 04:34:23;;;;;;;13.43;6.93;;;;;;;4.73;100.00;100840.81;7395709;19;20426;-45
2022/04/21 04:36:52;;;;;;;11.13;6.57;;;;;;;4.73;100.00;100834.03;7397836;19;20355;-45
2022/04/21 04:39:24;;;;;;;9.73;6.30;;;;;;;4.80;100.00;100835.34;7396958;19;20390;-47
2022/04/21 04:44:37;;;;;;;9.03;5.50;;;;;;;4.86;100.00;100842.50;7395763;19;20430;-50
2022/04/21 04:47:04;;;;;;;17.13;7.60;;;;;;;4.94;100.00;100851.59;7393019;19;20379;-49
2022/04/21 04:49:33;;;;;;;13.10;7.87;;;;;;;5.02;100.00;100849.53;7397391;19;20390;-46
2022/04/21 04:52:03;;;;;;;12.80;7.10;;;;;;;5.02;100.00;100844.41;7391269;19;20372;-44
2022/04/21 04:54:35;;;;;;;13.77;7.90;;;;;;;5.06;100.00;100848.94;7395717;19;20423;-49
2022/04/21 04:57:06;;;;;;;16.43;9.77;;;;;;;5.10;100.00;100858.59;7390730;19;20396;-45
2022/04/21 04:59:35;;;;;;;10.87;6.63;;;;;;;5.12;100.00;100862.13;7397617;19;20388;-45
2022/04/21 05:02:06;;;;;;;10.47;6.30;;;;;;;5.15;100.00;100861.44;7389878;19;20483;-46
2022/04/21 05:04:36;;;;;;;11.20;6.33;;;;;;;5.25;100.00;100863.84;7399020;19;20472;-48
2022/04/21 05:07:06;;;;;;;11.70;6.03;;;;;;;5.43;100.00;100865.78;7391138;19;20394;-45
2022/04/21 05:09:38;;;;;;;15.40;8.17;;;;;;;5.53;100.00;100863.03;7396787;19;20434;-45
2022/04/21 05:12:08;;;;;;;11.20;6.10;;;;;;;5.53;100.00;100869.81;7389881;19;20377;-46
2022/04/21 05:14:38;;;;;;;15.37;6.73;;;;;;;5.49;100.00;100878.97;7397169;19;20399;-50
2022/04/21 05:17:07;;;;;;;15.47;6.30;;;;;;;5.60;100.00;100881.34;7391882;19;20367;-45
2022/04/21 05:19:37;;;;;;;12.83;6.63;;;;;;;5.50;100.00;100882.44;7396217;19;20388;-47
2022/04/21 05:22:08;;;;;;;16.80;6.60;;;;;;;5.53;100.00;100880.97;7386449;19;20431;-48
2022/04/21 05:24:41;;;;;;;11.00;6.10;;;;;;;5.59;100.00;100888.13;7394543;19;20422;-45
2022/04/21 05:27:12;;;;;;;12.00;7.07;;;;;;;5.71;100.00;100892.28;7389381;19;20388;-50
2022/04/21 05:32:30;;;;;;;9.40;5.20;;;;;;;5.93;100.00;100897.06;7384759;19;20421;-47
2022/04/21 05:35:00;;;;;;;9.93;5.73;;;;;;;5.99;100.00;100907.69;7393948;19;20421;-50
2022/04/21 05:37:30;;;;;;;20.17;10.93;;;;;;;6.01;100.00;100906.13;7389462;19;20415;-46
2022/04/21 05:40:04;;;;;;;15.23;6.60;;;;;;;6.12;100.00;100908.50;7396087;19;20404;-45
2022/04/21 05:42:37;;;;;;;41.77;19.63;;;;;;;6.17;100.00;100910.59;7390552;19;20486;-46
2022/04/21 05:45:13;;;;;;;12.87;7.40;;;;;;;6.19;100.00;100920.91;7393682;19;20416;-46
2022/04/21 05:47:43;;;;;;;15.77;8.87;;;;;;;6.22;100.00;100921.09;7391360;19;20419;-47
2022/04/21 05:50:14;;;;;;;10.70;6.03;;;;;;;6.23;100.00;100928.00;7395530;19;20382;-48
2022/04/21 05:52:46;;;;;;;18.13;7.80;;;;;;;6.31;100.00;100931.91;7386825;19;20422;-46
2022/04/21 05:55:19;;;;;;;13.20;5.83;;;;;;;6.50;100.00;100938.19;7393559;19;20417;-45
2022/04/21 05:57:49;;;;;;;12.90;7.13;;;;;;;6.57;100.00;100949.69;7387639;19;20415;-47
2022/04/21 06:00:20;;;;;;;8.53;5.60;;;;;;;6.64;100.00;100940.69;7395152;19;20385;-45
2022/04/21 06:02:49;;;;;;;24.00;12.77;;;;;;;6.83;100.00;100946.13;7387198;19;20418;-46
2022/04/21 06:05:19;;;;;;;14.33;6.90;;;;;;;6.97;100.00;100958.94;7392571;19;20429;-45
2022/04/21 06:07:48;;;;;;;9.83;5.40;;;;;;;7.10;100.00;100956.28;7386237;19;20418;-47
2022/04/21 06:10:20;;;;;;;9.00;5.37;;;;;;;7.23;100.00;100968.13;7393186;19;20753;-48
2022/04/21 06:12:50;;;;;;;18.30;8.73;;;;;;;7.20;100.00;100970.53;7386931;19;20983;-48
2022/04/21 06:15:19;;;;;;;13.73;5.83;;;;;;;7.22;100.00;100971.50;7395471;19;20543;-45
2022/04/21 06:17:49;;;;;;;12.00;6.00;;;;;;;7.27;100.00;100976.91;7388191;19;20424;-46
2022/04/21 06:20:19;;;;;;;12.63;4.63;;;;;;;7.20;100.00;100972.22;7398239;19;20755;-45
2022/04/21 06:22:48;;;;;;;10.87;5.37;;;;;;;7.36;100.00;100974.91;7388823;19;20496;-49
2022/04/21 06:25:21;;;;;;;9.47;5.23;;;;;;;7.46;100.00;100973.75;7392390;19;20438;-49
2022/04/21 06:27:52;;;;;;;10.63;5.30;;;;;;;7.54;100.00;100976.75;7387214;19;20425;-47
2022/04/21 06:30:23;;;;;;;7.40;4.63;;;;;;;7.58;100.00;100983.81;7393814;19;20394;-46
2022/04/21 06:32:53;;;;;;;20.93;9.23;;;;;;;7.67;100.00;100979.22;7386547;19;20427;-45
2022/04/21 06:35:23;;;;;;;35.30;15.40;;;;;;;7.76;100.00;100972.84;7390959;19;20422;-47
2022/04/21 06:37:52;;;;;;;17.60;8.90;;;;;;;7.81;100.00;100986.84;7387175;19;20411;-46
2022/04/21 06:40:24;;;;;;;70.50;29.37;;;;;;;7.83;100.00;100991.25;7393611;19;20399;-47
2022/04/21 06:42:54;;;;;;;15.70;7.40;;;;;;;7.94;100.00;100983.25;7388135;19;20432;-45
2022/04/21 06:48:10;;;;;;;9.07;4.73;;;;;;;8.16;100.00;101003.31;7389691;19;20447;-46
2022/04/21 06:50:41;;;;;;;8.83;5.20;;;;;;;8.18;100.00;101006.88;7393708;19;20392;-47
2022/04/21 06:53:12;;;;;;;8.40;4.33;;;;;;;8.35;100.00;101005.25;7387854;19;20948;-46
2022/04/21 06:55:44;;;;;;;12.00;5.20;;;;;;;8.53;100.00;101007.09;7390975;19;20430;-46
2022/04/21 06:58:13;;;;;;;28.50;10.80;;;;;;;8.67;100.00;101002.66;7387752;19;20443;-45
2022/04/21 07:00:43;;;;;;;7.87;4.10;;;;;;;8.63;100.00;101008.47;7394071;19;20379;-47
2022/04/21 07:03:12;;;;;;;5.90;3.43;;;;;;;8.71;100.00;101012.31;7386219;19;20421;-46
2022/04/21 07:05:42;;;;;;;8.63;4.27;;;;;;;8.67;100.00;101005.22;7394133;19;20419;-50
2022/04/21 07:08:11;;;;;;;14.73;5.97;;;;;;;8.78;100.00;101018.69;7385561;19;20410;-47
2022/04/21 07:10:44;;;;;;;6.10;3.60;;;;;;;8.88;100.00;101022.63;7392758;19;20428;-48
2022/04/21 07:13:13;;;;;;;8.97;3.63;;;;;;;8.91;100.00;101020.19;7380941;19;20432;-47
2022/04/21 07:15:43;;;;;;;12.10;6.53;;;;;;;9.03;100.00;101035.44;7390819;19;20418;-45
2022/04/21 07:18:13;;;;;;;14.57;7.17;;;;;;;9.12;100.00;101025.59;7386617;19;20953;-47
2022/04/21 07:20:43;;;;;;;6.00;3.53;;;;;;;9.29;100.00;101036.75;7393011;19;20394;-50
2022/04/21 07:23:12;;;;;;;16.70;7.70;;;;;;;9.36;100.00;101034.50;7380879;19;20443;-46
2022/04/21 07:25:44;;;;;;;24.20;9.60;;;;;;;9.38;100.00;101038.06;7392627;19;20781;-46
2022/04/21 07:28:14;;;;;;;7.53;3.83;;;;;;;9.48;100.00;101049.72;7386804;19;20418;-46
2022/04/21 07:30:45;;;;;;;30.37;14.83;;;;;;;9.66;100.00;101040.34;7393339;19;20383;-46
2022/04/21 07:33:16;;;;;;;31.87;17.03;;;;;;;9.99;100.00;101052.22;7383025;19;20433;-46
2022/04/21 07:35:46;;;;;;;20.77;10.57;;;;;;;10.05;100.00;101060.25;7390076;19;20426;-48
2022/04/21 07:38:16;;;;;;;18.13;8.50;;;;;;;10.43;100.00;101062.94;7387390;19;20422;-47
2022/04/21 07:40:53;;;;;;;25.27;11.03;;;;;;;10.48;100.00;101068.31;7392233;19;20459;-48
2022/04/21 07:43:24;;;;;;;76.03;27.67;;;;;;;10.27;100.00;101072.47;7387288;19;20436;-48
2022/04/21 07:45:54;;;;;;;16.23;5.90;;;;;;;10.26;100.00;101075.00;7389501;19;20425;-50
2022/04/21 07:49:44;;;;;;;21.90;7.80;;;;;;;10.28;100.00;101081.13;7391847;19;20427;-50
2022/04/21 07:51:13;;;;;;;28.93;10.20;;;;;;;10.24;100.00;101089.50;7398886;19;20396;-46
2022/04/21 07:53:43;;;;;;;26.33;10.40;;;;;;;10.16;100.00;101085.69;7390788;19;20445;-48
2022/04/21 07:56:22;;;;;;;6.93;3.70;;;;;;;10.33;100.00;101095.13;7398658;19;20395;-51
2022/04/21 07:58:51;;;;;;;24.47;10.00;;;;;;;10.33;100.00;101095.13;7394143;19;20411;-46
2022/04/21 08:01:21;;;;;;;24.87;8.23;;;;;;;10.31;100.00;101094.16;7400220;19;20393;-46
2022/04/21 08:03:51;;;;;;;13.13;4.80;;;;;;;10.37;100.00;101094.44;7393300;19;20427;-46
2022/04/21 08:06:21;;;;;;;9.83;4.87;;;;;;;10.42;100.00;101096.38;7398524;19;20725;-48
2022/04/21 08:08:50;;;;;;;16.20;6.57;;;;;;;10.50;100.00;101084.75;7393652;19;21016;-47
2022/04/21 08:11:22;;;;;;;13.43;4.93;;;;;;;10.72;100.00;101085.75;7398211;19;20390;-47
2022/04/21 08:13:52;;;;;;;40.90;15.00;;;;;;;10.86;100.00;101084.69;7389794;19;20784;-48
2022/04/21 08:16:21;;;;;;;30.13;12.73;;;;;;;10.92;100.00;101094.44;7398608;19;20398;-48
2022/04/21 08:18:52;;;;;;;25.80;9.97;;;;;;;10.98;100.00;101097.25;7392843;19;20460;-46
2022/04/21 08:21:22;;;;;;;10.17;5.30;;;;;;;11.09;100.00;101097.78;7398183;19;20717;-50
2022/04/21 08:33:05;;;;;;;91.27;31.70;;;;;;;11.14;100.00;101091.13;7390860;19;20430;-50
2022/04/21 08:35:35;;;;;;;36.53;14.43;;;;;;;11.17;100.00;101093.84;7395394;19;20762;-46
2022/04/21 08:38:06;;;;;;;11.20;5.30;;;;;;;11.14;100.00;101095.41;7392392;19;20418;-47
2022/04/21 08:40:37;;;;;;;13.73;6.40;;;;;;;11.17;100.00;101086.09;7397891;19;20387;-45
2022/04/21 08:43:16;;;;;;;6.20;3.27;;;;;;;11.41;100.00;101095.75;7391057;19;20960;-45
2022/04/21 08:45:47;;;;;;;5.63;3.00;;;;;;;11.45;100.00;101097.63;7396395;19;20430;-45
2022/04/21 08:48:18;;;;;;;5.73;2.70;;;;;;;11.35;100.00;101098.06;7385995;19;20425;-46
2022/04/21 08:50:48;;;;;;;8.77;3.43;;;;;;;11.55;100.00;101104.09;7397680;19;20384;-48
2022/04/21 08:53:19;;;;;;;5.20;3.17;;;;;;;11.46;100.00;101102.00;7389913;19;20455;-48
2022/04/21 08:55:50;;;;;;;5.50;2.87;;;;;;;11.43;100.00;101104.44;7393763;19;20423;-48
2022/04/21 08:58:22;;;;;;;9.53;3.00;;;;;;;11.35;100.00;101098.91;7388854;19;20420;-48
2022/04/21 09:00:54;;;;;;;5.13;2.37;;;;;;;11.42;100.00;101100.09;7397979;19;20407;-45
2022/04/21 09:03:24;;;;;;;8.70;4.20;;;;;;;11.56;100.00;101100.69;7391131;19;20424;-49
2022/04/21 09:05:53;;;;;;;7.23;3.30;;;;;;;11.68;100.00;101094.25;7393640;19;20776;-46
2022/04/21 09:08:24;;;;;;;7.47;3.23;;;;;;;11.64;100.00;101093.25;7391691;19;20443;-46
2022/04/21 09:11:10;;;;;;;11.70;5.57;;;;;;;11.60;100.00;101086.19;7396782;19;20392;-46
2022/04/21 09:13:44;;;;;;;7.93;3.07;;;;;;;11.55;100.00;101086.00;7388115;19;20432;-50
2022/04/21 09:16:20;;;;;;;10.90;4.20;;;;;;;11.61;100.00;101082.78;7396699;19;20393;-48
2022/04/21 09:18:50;;;;;;;6.83;3.43;;;;;;;11.71;100.00;101089.22;7392537;19;20520;-47
2022/04/21 09:21:20;;;;;;;10.20;4.00;;;;;;;11.84;100.00;101082.91;7395373;19;20724;-47
2022/04/21 09:23:49;;;;;;;4.90;3.10;;;;;;;11.98;100.00;101089.50;7391342;19;20791;-47
2022/04/21 09:26:21;;;;;;;5.50;2.80;;;;;;;12.04;100.00;101075.09;7396394;19;20465;-47
2022/04/21 09:28:59;;;;;;;6.47;3.00;;;;;;;12.17;100.00;101068.72;7383484;19;20439;-49
2022/04/21 09:31:29;;;;;;;6.50;3.70;;;;;;;12.20;100.00;101076.59;7392890;19;20482;-48
2022/04/21 09:33:59;;;;;;;6.53;2.90;;;;;;;12.39;100.00;101070.44;7387089;19;20516;-47
2022/04/21 09:36:29;;;;;;;8.53;4.17;;;;;;;12.66;100.00;101077.50;7392856;19;20387;-47
2022/04/21 09:39:01;;;;;;;9.63;3.03;;;;;;;12.75;100.00;101084.75;7387113;19;20494;-50
2022/04/21 09:41:32;;;;;;;6.83;2.90;;;;;;;12.90;100.00;101076.66;7392709;19;20397;-47
2022/04/21 09:46:07;;;;;;;14.57;7.20;;;;;;;13.02;100.00;101078.84;7387398;19;20776;-46
2022/04/21 09:47:05;;;;;;;10.80;5.30;;;;;;;12.89;100.00;101078.41;7387801;19;20393;-48
2022/04/21 09:49:41;;;;;;;26.57;13.33;;;;;;;13.07;100.00;101073.00;7392954;19;20913;-47
2022/04/21 09:52:12;;;;;;;10.87;5.40;;;;;;;12.91;100.00;101073.25;7387005;19;20391;-50
2022/04/21 09:54:45;;;;;;;30.63;12.77;;;;;;;13.15;100.00;101075.00;7391486;19;20422;-49
2022/04/21 09:57:15;;;;;;;19.53;9.57;;;;;;;13.24;100.00;101081.38;7386562;19;20424;-47
2022/04/21 09:59:47;;;;;;;8.00;3.43;;;;;;;13.23;100.00;101073.56;7392912;19;20397;-46
2022/04/21 10:02:17;;;;;;;6.53;3.17;;;;;;;13.16;100.00;101076.75;7387677;19;20425;-48
2022/04/21 10:04:48;;;;;;;12.33;3.40;;;;;;;13.34;100.00;101076.53;7391864;19;20941;-48
2022/04/21 10:07:18;;;;;;;11.00;4.77;;;;;;;13.44;100.00;101082.94;7386788;19;20408;-47
2022/04/21 10:09:48;;;;;;;7.13;2.83;;;;;;;13.58;100.00;101079.13;7390950;19;21019;-47
2022/04/21 10:12:18;;;;;;;8.27;4.60;;;;;;;13.43;100.00;101068.22;7385891;19;20414;-46
2022/04/21 10:14:51;;;;;;;9.80;3.90;;;;;;;13.47;100.00;101054.53;7392182;19;20442;-46
2022/04/21 10:17:20;;;;;;;18.10;4.63;;;;;;;13.57;100.00;101063.53;7386559;19;20960;-45
2022/04/21 10:19:51;;;;;;;6.10;3.10;;;;;;;13.62;100.00;101062.88;7393448;19;20390;-46
2022/04/21 10:22:28;;;;;;;8.23;3.37;;;;;;;13.72;100.00;101055.38;7388449;19;20419;-45
2022/04/21 10:24:58;;;;;;;9.63;3.23;;;;;;;13.70;100.00;101065.69;7392131;19;20417;-45
2022/04/21 10:27:42;;;;;;;6.60;3.60;;;;;;;13.72;100.00;101053.69;7385972;19;20435;-48
2022/04/21 10:30:23;;;;;;;13.70;5.53;;;;;;;13.69;100.00;101052.72;7393433;19;20382;-48
2022/04/21 10:32:54;;;;;;;10.37;4.27;;;;;;;13.68;100.00;101046.63;7386391;19;20412;-48
2022/04/21 10:35:52;;;;;;;7.70;3.47;;;;;;;13.48;100.00;101051.13;7389807;19;20419;-48
2022/04/21 10:38:24;;;;;;;9.60;3.30;;;;;;;13.90;100.00;101047.34;7388427;19;21000;-48
2022/04/21 10:41:06;;;;;;;7.23;2.87;;;;;;;14.13;100.00;101044.59;7392697;19;20722;-48
2022/04/21 10:44:05;;;;;;;5.53;3.30;;;;;;;14.18;100.00;101054.31;7386527;19;20441;-47
2022/04/21 10:46:37;;;;;;;6.80;3.47;;;;;;;14.32;100.00;101051.25;7392787;19;20416;-48
2022/04/21 10:49:53;;;;;;;9.00;3.57;;;;;;;14.38;98.60;101051.44;7391675;19;20455;-48
2022/04/21 10:58:03;;;;;;;6.20;3.00;;;;;;;14.28;100.00;101049.38;7389588;19;20665;-51
2022/04/21 11:00:33;;;;;;;5.30;2.50;;;;;;;14.19;100.00;101031.81;7392723;19;20380;-46
2022/04/21 11:03:07;;;;;;;6.00;3.07;;;;;;;14.39;100.00;101036.75;7386227;19;20422;-46
2022/04/21 11:05:38;;;;;;;6.00;3.07;;;;;;;14.68;100.00;101040.19;7389589;19;20430;-47
2022/04/21 11:08:15;;;;;;;7.93;3.50;;;;;;;14.61;100.00;101043.47;7387141;19;20487;-52
2022/04/21 11:10:45;;;;;;;7.10;3.90;;;;;;;14.69;100.00;101036.78;7392722;19;20423;-48
2022/04/21 11:13:16;;;;;;;5.97;3.83;;;;;;;14.61;100.00;101035.66;7381430;19;20421;-50
2022/04/21 11:15:50;;;;;;;7.30;3.37;;;;;;;14.63;100.00;101040.91;7390044;19;20422;-47
2022/04/21 11:18:24;;;;;;;7.40;2.90;;;;;;;14.52;100.00;101048.38;7384805;19;20430;-46
2022/04/21 11:20:54;;;;;;;8.53;3.80;;;;;;;14.45;100.00;101052.50;7395641;19;20391;-47
2022/04/21 11:23:25;;;;;;;8.83;2.73;;;;;;;14.30;100.00;101042.53;7395768;19;20518;-47
2022/04/21 11:26:05;;;;;;;8.50;3.30;;;;;;;14.55;100.00;101048.47;7394972;19;20421;-47
2022/04/21 11:28:35;;;;;;;5.27;2.63;;;;;;;14.53;100.00;101042.34;7390932;19;20447;-45
2022/04/21 11:31:06;;;;;;;5.40;2.70;;;;;;;14.52;99.56;101038.00;7403727;19;20919;-50
2022/04/21 11:33:41;;;;;;;11.30;2.77;;;;;;;14.55;96.32;101040.69;7394574;19;20507;-47
2022/04/21 11:36:13;;;;;;;7.70;3.73;;;;;;;14.15;97.39;101041.22;7397195;19;20384;-46
2022/04/21 11:38:44;;;;;;;4.80;2.40;;;;;;;14.22;98.65;101036.22;7393429;19;20937;-50
2022/04/21 11:41:15;;;;;;;5.70;2.93;;;;;;;14.35;100.00;101030.56;7399593;19;20383;-46
2022/04/21 11:43:47;;;;;;;8.40;3.13;;;;;;;14.25;98.31;101033.75;7392268;19;20409;-51
2022/04/21 11:46:17;;;;;;;15.80;3.20;;;;;;;14.18;98.75;101028.38;7403491;19;20403;-46
2022/04/21 11:48:49;;;;;;;8.07;3.57;;;;;;;14.33;99.37;101034.84;7393358;19;20414;-51
2022/04/21 11:51:24;;;;;;;4.90;2.73;;;;;;;14.02;98.80;101026.09;7398899;19;20395;-50
2022/04/21 11:53:55;;;;;;;9.33;3.57;;;;;;;13.82;100.00;101036.72;7392327;19;20406;-50
2022/04/21 11:56:27;;;;;;;8.40;5.07;;;;;;;13.70;100.00;101024.22;7396204;19;20388;-52
2022/04/21 11:58:57;;;;;;;8.40;4.27;;;;;;;13.70;100.00;101031.13;7392987;19;20399;-49
2022/04/21 12:07:11;;;;;;;13.93;3.13;;;;;;;13.97;100.00;101025.97;7388202;19;20395;-49
2022/04/21 12:09:42;;;;;;;13.13;3.47;;;;;;;13.82;100.00;101028.03;7397238;19;20390;-53
2022/04/21 12:12:13;;;;;;;8.10;3.50;;;;;;;13.97;100.00;101032.84;7389886;19;20372;-46
2022/04/21 12:14:43;;;;;;;7.73;2.77;;;;;;;14.06;100.00;101029.69;7396959;19;20453;-52
2022/04/21 12:17:13;;;;;;;8.60;3.10;;;;;;;13.86;100.00;101024.72;7392488;19;22140;-46
2022/04/21 12:19:46;;;;;;;8.23;3.40;;;;;;;13.54;100.00;101022.81;7397726;19;20383;-49
2022/04/21 12:22:18;;;;;;;7.97;4.37;;;;;;;13.55;100.00;101029.78;7391667;19;20403;-48
2022/04/21 12:24:50;;;;;;;4.70;2.50;;;;;;;13.97;100.00;101028.56;7396997;19;20930;-47
2022/04/21 12:27:22;;;;;;;11.83;2.90;;;;;;;14.06;99.85;101027.09;7390667;19;20407;-46
2022/04/21 12:29:53;;;;;;;9.40;3.20;;;;;;;13.85;100.00;101030.75;7398167;19;20470;-49